createdAt,value
2017-09-04T00:00:00.834Z,9.57
2017-09-04T00:02:28.196Z,11.77
2017-09-04T00:04:55.492Z,9.80
2017-09-04T00:07:22.820Z,11.07
2017-09-04T00:09:50.127Z,12.53
2017-09-04T00:12:17.452Z,11.97
2017-09-04T00:14:44.780Z,11.60
2017-09-04T00:17:12.149Z,11.07
2017-09-04T00:19:39.461Z,12.70
2017-09-04T00:22:06.822Z,12.50
2017-09-04T00:24:34.154Z,10.80
2017-09-04T00:27:01.847Z,13.97
2017-09-04T00:29:29.224Z,13.63
2017-09-04T00:31:56.580Z,12.27
2017-09-04T00:34:23.925Z,14.17
2017-09-04T00:36:51.273Z,15.80
2017-09-04T00:39:18.628Z,20.47
2017-09-04T00:41:45.940Z,10.53
2017-09-04T00:44:13.337Z,14.20
2017-09-04T00:46:40.640Z,12.97
2017-09-04T00:49:08.004Z,14.57
2017-09-04T00:51:35.299Z,14.30
2017-09-04T00:54:02.657Z,13.80
2017-09-04T00:56:29.983Z,12.00
2017-09-04T00:58:57.346Z,15.13
2017-09-04T01:01:24.674Z,14.73
2017-09-04T01:03:52.039Z,10.73
2017-09-04T01:06:19.362Z,10.03
2017-09-04T01:08:46.683Z,10.97
2017-09-04T01:11:13.989Z,12.43
2017-09-04T01:13:41.318Z,11.50
2017-09-04T01:16:08.625Z,14.97
2017-09-04T01:18:35.962Z,11.20
2017-09-04T01:21:03.338Z,9.80
2017-09-04T01:23:30.652Z,11.60
2017-09-04T01:25:57.973Z,14.60
2017-09-04T01:28:25.324Z,12.20
2017-09-04T01:30:52.639Z,9.90
2017-09-04T01:33:19.975Z,12.70
2017-09-04T01:35:47.290Z,11.90
2017-09-04T01:38:14.603Z,12.10
2017-09-04T01:40:41.927Z,14.83
2017-09-04T01:43:09.273Z,14.13
2017-09-04T01:45:36.592Z,11.60
2017-09-04T01:48:03.909Z,11.63
2017-09-04T01:50:31.214Z,16.60
2017-09-04T01:52:58.542Z,9.83
2017-09-04T01:55:25.861Z,15.10
2017-09-04T01:57:53.238Z,10.93
2017-09-04T02:00:20.657Z,14.23
2017-09-04T02:02:47.981Z,13.40
2017-09-04T02:05:15.296Z,11.87
2017-09-04T02:07:42.610Z,11.70
2017-09-04T02:10:09.934Z,12.57
2017-09-04T02:12:37.245Z,11.70
2017-09-04T02:15:04.570Z,11.97
2017-09-04T02:17:31.874Z,12.37
2017-09-04T02:19:59.203Z,10.63
2017-09-04T02:22:26.525Z,14.57
2017-09-04T02:24:53.870Z,11.43
2017-09-04T02:27:21.177Z,11.83
2017-09-04T02:29:48.496Z,13.00
2017-09-04T02:32:16.098Z,11.97
2017-09-04T02:34:43.466Z,12.00
2017-09-04T02:37:10.786Z,11.30
2017-09-04T02:39:38.137Z,12.70
2017-09-04T02:42:05.433Z,15.70
2017-09-04T02:44:32.797Z,13.83
2017-09-04T02:47:00.118Z,11.90
2017-09-04T02:49:27.446Z,12.27
2017-09-04T02:51:54.799Z,13.47
2017-09-04T02:54:22.122Z,11.40
2017-09-04T02:56:49.431Z,13.60
2017-09-04T02:59:16.771Z,11.63
2017-09-04T03:01:44.078Z,11.40
2017-09-04T03:04:11.478Z,12.13
2017-09-04T03:06:38.776Z,15.10
2017-09-04T03:09:06.399Z,12.33
2017-09-04T03:11:33.735Z,13.93
2017-09-04T03:14:01.096Z,12.73
2017-09-04T03:16:28.422Z,14.60
2017-09-04T03:18:55.777Z,10.97
2017-09-04T03:21:23.104Z,12.20
2017-09-04T03:23:50.492Z,13.70
2017-09-04T03:26:17.811Z,14.57
2017-09-04T03:28:45.114Z,14.67
2017-09-04T03:31:12.486Z,13.23
2017-09-04T03:33:39.804Z,14.50
2017-09-04T03:36:07.154Z,14.90
2017-09-04T03:38:34.522Z,15.37
2017-09-04T03:41:01.833Z,18.80
2017-09-04T03:43:29.160Z,16.90
2017-09-04T03:45:56.577Z,17.63
2017-09-04T03:48:23.887Z,14.20
2017-09-04T03:50:51.232Z,14.80
2017-09-04T03:53:18.533Z,14.77
2017-09-04T03:55:45.882Z,13.93
2017-09-04T03:58:13.205Z,14.20
2017-09-04T04:00:40.539Z,16.13
2017-09-04T04:03:07.840Z,16.60
2017-09-04T04:05:35.191Z,14.87
2017-09-04T04:08:02.493Z,14.73
2017-09-04T04:10:29.817Z,15.60
2017-09-04T04:12:57.154Z,16.60
2017-09-04T04:15:24.489Z,15.33
2017-09-04T04:17:51.818Z,15.93
2017-09-04T04:20:19.135Z,19.53
2017-09-04T04:22:46.475Z,16.57
2017-09-04T04:25:13.808Z,15.50
2017-09-04T04:27:41.114Z,14.87
2017-09-04T04:30:08.469Z,16.03
2017-09-04T04:32:35.791Z,14.70
2017-09-04T04:35:03.141Z,15.43
2017-09-04T04:37:30.467Z,15.20
2017-09-04T04:39:57.838Z,13.23
2017-09-04T04:42:25.153Z,16.80
2017-09-04T04:44:52.493Z,17.70
2017-09-04T04:47:19.878Z,16.73
2017-09-04T04:49:47.194Z,17.57
2017-09-04T04:52:14.548Z,16.53
2017-09-04T04:54:41.862Z,17.23
2017-09-04T04:57:09.212Z,18.10
2017-09-04T04:59:36.540Z,17.30
2017-09-04T05:02:03.885Z,19.07
2017-09-04T05:04:31.216Z,17.83
2017-09-04T05:06:58.595Z,19.00
2017-09-04T05:09:25.904Z,16.70
2017-09-04T05:11:53.261Z,17.20
2017-09-04T05:14:20.602Z,19.30
2017-09-04T05:16:47.946Z,17.03
2017-09-04T05:19:15.275Z,14.67
2017-09-04T05:21:42.639Z,14.60
2017-09-04T05:24:09.956Z,16.37
2017-09-04T05:26:37.308Z,15.57
2017-09-04T05:29:04.633Z,14.63
2017-09-04T05:31:31.995Z,16.50
2017-09-04T05:33:59.317Z,17.10
2017-09-04T05:36:26.685Z,14.70
2017-09-04T05:38:53.995Z,13.40
2017-09-04T05:41:21.363Z,13.70
2017-09-04T05:43:49.091Z,17.67
2017-09-04T05:46:16.453Z,17.00
2017-09-04T05:48:43.764Z,14.53
2017-09-04T05:51:11.097Z,16.00
2017-09-04T05:53:38.431Z,17.07
2017-09-04T05:56:06.162Z,12.87
2017-09-04T05:58:33.469Z,14.37
2017-09-04T06:01:00.807Z,12.50
2017-09-04T06:03:28.110Z,14.33
2017-09-04T06:05:55.421Z,12.20
2017-09-04T06:08:22.734Z,11.70
2017-09-04T06:10:50.098Z,13.10
2017-09-04T06:13:17.398Z,14.43
2017-09-04T06:15:44.725Z,12.70
2017-09-04T06:18:12.094Z,15.33
2017-09-04T06:20:39.422Z,15.97
2017-09-04T06:23:06.769Z,13.93
2017-09-04T06:25:34.077Z,12.10
2017-09-04T06:28:01.402Z,20.87
2017-09-04T06:30:28.706Z,12.90
2017-09-04T06:32:56.038Z,11.37
2017-09-04T06:35:23.353Z,16.27
2017-09-04T06:37:50.687Z,14.50
2017-09-04T06:40:17.997Z,12.20
2017-09-04T06:42:45.326Z,11.13
2017-09-04T06:45:13.543Z,13.97
2017-09-04T06:47:40.904Z,13.97
2017-09-04T06:50:08.216Z,9.20
2017-09-04T06:52:35.586Z,12.67
2017-09-04T06:55:02.923Z,13.63
2017-09-04T06:57:30.255Z,11.20
2017-09-04T06:59:57.602Z,9.87
2017-09-04T07:02:24.964Z,8.47
2017-09-04T07:04:52.266Z,13.23
2017-09-04T07:07:19.620Z,10.13
2017-09-04T07:09:46.943Z,8.23
2017-09-04T07:12:14.272Z,6.47
2017-09-04T07:14:41.592Z,8.17
2017-09-04T07:17:08.914Z,7.30
2017-09-04T07:19:36.215Z,9.83
2017-09-04T07:22:03.564Z,7.13
2017-09-04T07:24:30.918Z,6.90
2017-09-04T07:26:58.256Z,8.50
2017-09-04T07:29:25.590Z,6.97
2017-09-04T07:31:52.932Z,6.23
2017-09-04T07:34:20.254Z,4.50
2017-09-04T07:36:47.573Z,7.13
2017-09-04T07:39:14.870Z,5.27
2017-09-04T07:41:42.223Z,6.47
2017-09-04T07:44:09.533Z,4.07
2017-09-04T07:46:36.864Z,7.00
2017-09-04T07:49:04.228Z,6.80
2017-09-04T07:51:31.527Z,4.77
2017-09-04T07:53:58.843Z,5.63
2017-09-04T07:56:26.154Z,9.53
2017-09-04T07:58:53.499Z,5.30
2017-09-04T08:01:20.815Z,5.60
2017-09-04T08:03:48.144Z,9.33
2017-09-04T08:06:15.557Z,5.43
2017-09-04T08:08:42.877Z,6.23
2017-09-04T08:11:10.183Z,2.97
2017-09-04T08:13:37.497Z,3.40
2017-09-04T08:16:04.849Z,5.80
2017-09-04T08:18:32.214Z,6.27
2017-09-04T08:20:59.816Z,3.50
2017-09-04T08:23:27.160Z,5.20
2017-09-04T08:25:54.487Z,5.80
2017-09-04T08:28:21.804Z,3.50
2017-09-04T08:30:49.113Z,4.93
2017-09-04T08:33:16.462Z,5.20
2017-09-04T08:35:43.784Z,6.03
2017-09-04T08:38:11.106Z,4.60
2017-09-04T08:40:38.414Z,3.77
2017-09-04T08:43:05.982Z,6.63
2017-09-04T08:45:33.280Z,4.40
2017-09-04T08:48:00.620Z,3.37
2017-09-04T08:50:27.941Z,4.80
2017-09-04T08:52:55.295Z,4.77
2017-09-04T08:55:22.616Z,8.67
2017-09-04T08:57:49.934Z,4.47
2017-09-04T09:00:17.230Z,5.57
2017-09-04T09:02:44.559Z,2.30
2017-09-04T09:05:11.886Z,6.27
2017-09-04T09:07:39.218Z,2.67
2017-09-04T09:10:06.582Z,5.53
2017-09-04T09:12:33.904Z,2.97
2017-09-04T09:15:01.231Z,3.20
2017-09-04T09:17:28.541Z,2.60
2017-09-04T09:19:55.868Z,3.37
2017-09-04T09:22:23.206Z,4.87
2017-09-04T09:24:50.517Z,5.57
2017-09-04T09:27:17.829Z,4.77
2017-09-04T09:29:45.163Z,2.70
2017-09-04T09:32:12.466Z,4.50
2017-09-04T09:34:39.867Z,2.57
2017-09-04T09:37:07.160Z,3.07
2017-09-04T09:39:34.488Z,4.67
2017-09-04T09:42:01.790Z,4.33
2017-09-04T09:44:29.118Z,4.40
2017-09-04T09:46:56.414Z,4.47
2017-09-04T09:49:23.757Z,3.30
2017-09-04T09:51:51.090Z,4.80
2017-09-04T09:54:18.442Z,3.97
2017-09-04T09:56:45.768Z,4.33
2017-09-04T09:59:13.119Z,4.43
2017-09-04T10:01:40.432Z,4.80
2017-09-04T10:04:07.790Z,3.40
2017-09-04T10:06:35.133Z,4.43
2017-09-04T10:09:02.492Z,3.47
2017-09-04T10:11:29.979Z,6.47
2017-09-04T10:13:57.301Z,4.60
2017-09-04T10:16:24.611Z,5.40
2017-09-04T10:18:51.963Z,2.57
2017-09-04T10:21:19.286Z,2.93
2017-09-04T10:23:46.637Z,2.57
2017-09-04T10:26:13.967Z,2.60
2017-09-04T10:28:41.304Z,3.67
2017-09-04T10:31:08.662Z,4.83
2017-09-04T10:33:35.961Z,3.80
2017-09-04T10:36:03.362Z,5.70
2017-09-04T10:38:30.823Z,3.97
2017-09-04T10:40:58.405Z,3.90
2017-09-04T10:43:27.096Z,4.60
2017-09-04T10:45:54.672Z,2.40
2017-09-04T10:48:21.978Z,2.40
2017-09-04T10:50:49.323Z,2.63
2017-09-04T10:53:16.653Z,3.80
2017-09-04T10:55:43.986Z,3.40
2017-09-04T10:58:11.280Z,4.60
2017-09-04T11:00:38.606Z,2.30
2017-09-04T11:03:05.906Z,5.67
2017-09-04T11:05:33.235Z,3.20
2017-09-04T11:08:00.525Z,3.53
2017-09-04T11:10:27.848Z,3.23
2017-09-04T11:12:55.185Z,3.00
2017-09-04T11:15:22.493Z,2.57
2017-09-04T11:17:49.793Z,4.00
2017-09-04T11:20:17.105Z,5.30
2017-09-04T11:22:44.446Z,1.97
2017-09-04T11:25:11.798Z,5.93
2017-09-04T11:27:39.113Z,2.50
2017-09-04T11:30:06.500Z,2.30
2017-09-04T11:32:34.094Z,4.17
2017-09-04T11:35:01.402Z,2.37
2017-09-04T11:37:30.108Z,2.03
2017-09-04T11:39:57.409Z,4.27
2017-09-04T11:42:24.710Z,3.70
2017-09-04T11:44:52.021Z,3.53
2017-09-04T11:47:23.150Z,5.60
2017-09-04T11:49:50.470Z,4.60
2017-09-04T11:52:17.770Z,2.40
2017-09-04T11:54:45.105Z,2.20
2017-09-04T11:57:12.428Z,5.43
2017-09-04T11:59:39.788Z,2.50
2017-09-04T12:02:07.132Z,4.50
2017-09-04T12:04:34.491Z,2.37
2017-09-04T12:07:01.819Z,2.50
2017-09-04T12:09:32.023Z,2.73
2017-09-04T12:11:59.390Z,3.50
2017-09-04T12:14:26.749Z,2.60
2017-09-04T12:16:54.054Z,2.47
2017-09-04T12:19:21.364Z,3.33
2017-09-04T12:21:48.699Z,2.00
2017-09-04T12:24:16.930Z,2.77
2017-09-04T12:26:44.266Z,5.00
2017-09-04T12:29:11.582Z,2.60
2017-09-04T12:31:38.925Z,3.50
2017-09-04T12:34:06.245Z,3.13
2017-09-04T12:36:33.566Z,2.67
2017-09-04T12:39:00.873Z,2.63
2017-09-04T12:41:28.173Z,3.63
2017-09-04T12:43:55.507Z,3.00
2017-09-04T12:46:22.814Z,3.10
2017-09-04T12:48:50.118Z,3.20
2017-09-04T12:51:17.433Z,5.40
2017-09-04T12:53:44.743Z,2.70
2017-09-04T12:56:12.062Z,2.10
2017-09-04T12:58:39.375Z,3.83
2017-09-04T13:01:06.710Z,2.40
2017-09-04T13:03:34.167Z,3.57
2017-09-04T13:06:01.529Z,7.63
2017-09-04T13:08:28.830Z,3.23
2017-09-04T13:11:01.884Z,3.87
2017-09-04T13:13:29.191Z,1.93
2017-09-04T13:16:00.472Z,2.43
2017-09-04T13:18:33.598Z,3.70
2017-09-04T13:21:06.770Z,1.67
2017-09-04T13:23:50.860Z,3.20
2017-09-04T13:26:24.080Z,3.80
2017-09-04T13:28:57.097Z,3.03
2017-09-04T13:31:30.171Z,6.43
2017-09-04T13:34:14.149Z,1.73
2017-09-04T13:37:00.147Z,2.50
2017-09-04T13:39:33.154Z,2.40
2017-09-04T13:42:06.076Z,2.80
2017-09-04T13:44:39.045Z,1.97
2017-09-04T13:47:12.151Z,2.00
2017-09-04T13:49:41.261Z,2.80
2017-09-04T13:52:14.637Z,1.90
2017-09-04T13:55:02.647Z,1.90
2017-09-04T13:57:50.632Z,2.40
2017-09-04T14:00:30.637Z,3.97
2017-09-04T14:03:14.740Z,3.60
2017-09-04T14:05:58.696Z,3.33
2017-09-04T14:08:42.800Z,2.90
2017-09-04T14:11:15.850Z,4.03
2017-09-04T14:13:50.694Z,3.33
2017-09-04T14:16:37.683Z,2.73
2017-09-04T14:19:04.998Z,3.37
2017-09-04T14:21:32.315Z,3.10
2017-09-04T14:23:59.634Z,2.80
2017-09-04T14:26:26.942Z,2.50
2017-09-04T14:28:54.249Z,3.50
2017-09-04T14:31:21.565Z,6.63
2017-09-04T14:33:48.917Z,2.40
2017-09-04T14:36:16.240Z,4.43
2017-09-04T14:38:43.599Z,2.63
2017-09-04T14:41:21.629Z,2.87
2017-09-04T14:43:48.953Z,2.67
2017-09-04T14:46:17.966Z,3.40
2017-09-04T14:48:45.299Z,2.40
2017-09-04T14:51:12.599Z,3.97
2017-09-04T14:53:39.934Z,3.00
2017-09-04T14:56:07.258Z,3.67
2017-09-04T14:58:34.615Z,2.80
2017-09-04T15:01:01.923Z,2.60
2017-09-04T15:03:29.245Z,3.10
2017-09-04T15:05:56.538Z,5.00
2017-09-04T15:08:24.103Z,3.03
2017-09-04T15:10:51.395Z,2.90
2017-09-04T15:13:18.719Z,2.50
2017-09-04T15:15:46.008Z,3.60
2017-09-04T15:18:13.340Z,3.93
2017-09-04T15:20:40.669Z,3.80
2017-09-04T15:23:08.391Z,4.37
2017-09-04T15:25:35.686Z,4.03
2017-09-04T15:28:03.014Z,2.90
2017-09-04T15:30:30.367Z,6.33
2017-09-04T15:32:57.699Z,3.53
2017-09-04T15:35:25.004Z,3.70
2017-09-04T15:37:52.344Z,4.10
2017-09-04T15:40:19.651Z,4.93
2017-09-04T15:42:46.974Z,4.07
2017-09-04T15:45:14.286Z,4.87
2017-09-04T15:47:41.644Z,4.80
2017-09-04T15:50:09.876Z,4.83
2017-09-04T15:52:37.172Z,6.13
2017-09-04T15:55:04.473Z,4.03
2017-09-04T15:57:31.912Z,5.53
2017-09-04T15:59:59.241Z,3.73
2017-09-04T16:02:26.543Z,3.77
2017-09-04T16:04:53.863Z,3.50
2017-09-04T16:07:37.400Z,4.10
2017-09-04T16:10:04.717Z,5.67
2017-09-04T16:12:37.703Z,4.70
2017-09-04T16:15:05.838Z,5.97
2017-09-04T16:17:33.788Z,3.80
2017-09-04T16:20:06.874Z,3.30
2017-09-04T16:22:39.214Z,4.00
2017-09-04T16:25:07.459Z,3.63
2017-09-04T16:27:44.678Z,3.33
2017-09-04T16:30:29.809Z,4.17
2017-09-04T16:33:13.939Z,3.10
2017-09-04T16:35:41.834Z,4.63
2017-09-04T16:38:09.476Z,5.43
2017-09-04T16:40:36.799Z,3.50
2017-09-04T16:43:05.296Z,3.20
2017-09-04T16:45:49.261Z,4.70
2017-09-04T16:48:22.501Z,4.90
2017-09-04T16:50:49.819Z,3.20
2017-09-04T16:53:18.053Z,3.20
2017-09-04T16:55:46.260Z,3.50
2017-09-04T16:58:13.590Z,4.83
2017-09-04T17:00:40.911Z,3.53
2017-09-04T17:03:08.254Z,5.10
2017-09-04T17:05:35.589Z,6.20
2017-09-04T17:08:02.891Z,5.17
2017-09-04T17:10:48.066Z,4.57
2017-09-04T17:13:15.382Z,4.17
2017-09-04T17:15:46.317Z,3.30
2017-09-04T17:18:14.284Z,4.27
2017-09-04T17:20:42.016Z,3.27
2017-09-04T17:23:19.219Z,4.87
2017-09-04T17:25:46.540Z,6.30
2017-09-04T17:28:14.010Z,3.50
2017-09-04T17:30:41.329Z,3.80
2017-09-04T17:33:08.629Z,4.40
2017-09-04T17:35:37.825Z,3.33
2017-09-04T17:38:05.892Z,3.50
2017-09-04T17:40:33.206Z,4.43
2017-09-04T17:43:00.530Z,4.00
2017-09-04T17:45:27.895Z,4.07
2017-09-04T17:47:55.205Z,5.83
2017-09-04T17:50:22.519Z,3.30
2017-09-04T17:52:49.817Z,4.07
2017-09-04T17:55:17.141Z,3.83
2017-09-04T17:57:44.455Z,5.10
2017-09-04T18:00:11.818Z,4.80
2017-09-04T18:02:39.166Z,5.13
2017-09-04T18:05:06.484Z,7.93
2017-09-04T18:07:33.790Z,5.40
2017-09-04T18:10:01.102Z,5.43
2017-09-04T18:12:28.416Z,5.10
2017-09-04T18:14:55.759Z,6.20
2017-09-04T18:17:23.103Z,4.77
2017-09-04T18:19:50.413Z,6.53
2017-09-04T18:22:17.714Z,7.00
2017-09-04T18:24:45.025Z,9.10
2017-09-04T18:27:12.343Z,8.43
2017-09-04T18:29:39.666Z,6.30
2017-09-04T18:32:06.962Z,6.80
2017-09-04T18:34:34.612Z,10.90
2017-09-04T18:37:01.930Z,9.77
2017-09-04T18:39:29.235Z,5.40
2017-09-04T18:41:56.567Z,10.90
2017-09-04T18:44:23.882Z,8.03
2017-09-04T18:46:51.172Z,6.70
2017-09-04T18:49:18.494Z,7.20
2017-09-04T18:51:45.792Z,7.43
2017-09-04T18:54:13.106Z,7.43
2017-09-04T18:56:40.408Z,7.80
2017-09-04T18:59:07.721Z,10.27
2017-09-04T19:01:35.038Z,6.63
2017-09-04T19:04:02.369Z,9.20
2017-09-04T19:06:29.860Z,10.97
2017-09-04T19:08:57.171Z,8.27
2017-09-04T19:11:24.583Z,9.90
2017-09-04T19:13:51.886Z,6.80
2017-09-04T19:16:19.216Z,9.23
2017-09-04T19:18:46.518Z,8.07
2017-09-04T19:21:13.883Z,6.50
2017-09-04T19:23:41.204Z,11.83
2017-09-04T19:26:08.549Z,10.00
2017-09-04T19:28:35.914Z,7.87
2017-09-04T19:31:03.228Z,9.00
2017-09-04T19:33:30.566Z,11.30
2017-09-04T19:35:57.913Z,16.00
2017-09-04T19:38:25.268Z,7.43
2017-09-04T19:40:52.605Z,9.53
2017-09-04T19:43:19.916Z,8.03
2017-09-04T19:45:47.292Z,17.23
2017-09-04T19:48:14.619Z,7.93
2017-09-04T19:50:41.966Z,9.00
2017-09-04T19:53:10.244Z,9.57
2017-09-04T19:55:37.740Z,9.70
2017-09-04T19:58:05.305Z,10.83
2017-09-04T20:00:32.714Z,10.60
2017-09-04T20:03:00.336Z,11.40
2017-09-04T20:05:27.934Z,10.33
2017-09-04T20:07:55.392Z,11.40
2017-09-04T20:10:23.307Z,10.50
2017-09-04T20:12:50.878Z,9.37
2017-09-04T20:15:18.536Z,11.00
2017-09-04T20:17:45.860Z,9.93
2017-09-04T20:20:13.211Z,9.17
2017-09-04T20:22:41.378Z,11.37
2017-09-04T20:25:08.725Z,9.50
2017-09-04T20:27:36.087Z,8.00
2017-09-04T20:30:03.392Z,9.67
2017-09-04T20:32:30.692Z,8.93
2017-09-04T20:34:57.993Z,13.67
2017-09-04T20:37:25.349Z,8.90
2017-09-04T20:39:52.645Z,10.57
2017-09-04T20:42:19.971Z,9.97
2017-09-04T20:44:47.283Z,12.43
2017-09-04T20:47:14.598Z,9.00
2017-09-04T20:49:41.926Z,10.50
2017-09-04T20:52:09.390Z,12.53
2017-09-04T20:54:36.709Z,14.43
2017-09-04T20:57:04.025Z,10.80
2017-09-04T20:59:31.344Z,11.80
2017-09-04T21:01:58.660Z,10.13
2017-09-04T21:04:26.385Z,13.17
2017-09-04T21:06:53.772Z,10.37
2017-09-04T21:09:21.087Z,10.40
2017-09-04T21:11:48.429Z,14.00
2017-09-04T21:14:15.733Z,9.77
2017-09-04T21:16:43.048Z,17.73
2017-09-04T21:19:10.366Z,11.20
2017-09-04T21:21:37.684Z,10.13
2017-09-04T21:24:04.999Z,10.87
2017-09-04T21:26:32.326Z,15.80
2017-09-04T21:28:59.625Z,12.67
2017-09-04T21:31:26.932Z,9.83
2017-09-04T21:33:54.226Z,12.40
2017-09-04T21:36:21.563Z,11.23
2017-09-04T21:38:48.861Z,16.27
2017-09-04T21:41:16.208Z,12.27
2017-09-04T21:43:43.527Z,11.70
2017-09-04T21:46:10.863Z,12.63
2017-09-04T21:48:38.163Z,13.20
2017-09-04T21:51:05.460Z,10.07
2017-09-04T21:53:32.825Z,11.83
2017-09-04T21:56:00.110Z,10.90
2017-09-04T21:58:27.439Z,10.20
2017-09-04T22:00:54.737Z,10.03
2017-09-04T22:03:22.073Z,11.27
2017-09-04T22:05:49.398Z,9.60
2017-09-04T22:08:16.709Z,12.03
2017-09-04T22:10:44.014Z,10.80
2017-09-04T22:13:11.343Z,12.03
2017-09-04T22:15:38.666Z,11.33
2017-09-04T22:18:06.024Z,13.20
2017-09-04T22:20:33.394Z,9.77
2017-09-04T22:23:00.745Z,16.00
2017-09-04T22:25:28.077Z,11.03
2017-09-04T22:27:55.408Z,11.80
2017-09-04T22:30:22.723Z,12.20
2017-09-04T22:32:50.049Z,11.40
2017-09-04T22:35:17.366Z,11.03
2017-09-04T22:37:44.690Z,15.50
2017-09-04T22:40:11.993Z,11.60
2017-09-04T22:42:39.532Z,11.90
2017-09-04T22:45:06.901Z,11.43
2017-09-04T22:47:34.220Z,12.03
2017-09-04T22:50:01.537Z,12.93
2017-09-04T22:52:28.849Z,12.53
2017-09-04T22:54:56.162Z,12.00
2017-09-04T22:57:23.478Z,11.30
2017-09-04T22:59:50.816Z,13.43
2017-09-04T23:02:18.153Z,15.40
2017-09-04T23:04:45.476Z,11.27
2017-09-04T23:07:12.797Z,11.20
2017-09-04T23:09:40.097Z,11.57
2017-09-04T23:12:07.425Z,9.60
2017-09-04T23:14:34.853Z,12.20
2017-09-04T23:17:02.333Z,10.33
2017-09-04T23:19:29.640Z,10.83
2017-09-04T23:21:56.946Z,12.03
2017-09-04T23:24:24.266Z,10.77
2017-09-04T23:26:51.576Z,9.87
2017-09-04T23:29:18.909Z,9.47
2017-09-04T23:31:46.239Z,10.43
2017-09-04T23:34:13.565Z,10.60
2017-09-04T23:36:40.865Z,10.77
2017-09-04T23:39:08.171Z,11.60
2017-09-04T23:41:35.491Z,9.40
2017-09-04T23:44:02.823Z,9.27
2017-09-04T23:46:30.126Z,12.37
2017-09-04T23:48:57.449Z,12.37
2017-09-04T23:51:24.774Z,10.23
2017-09-04T23:53:52.122Z,9.47
2017-09-04T23:56:19.463Z,8.93
2017-09-04T23:58:46.764Z,10.83
